Billet, Illinois
Current Conditions -  °F | °C
As of 8:53 PM on Thursday 20 Nov 2014 (Local Time) from KLWV Reporting Station
Clear Clear  
Wind Chill: 21°   Ceiling: Unl
Heat Index: 21°   Visibility: 10mi
Dew Point: 15°   Wind: 0mph
Humidity: 78%   Direction: NA
Pressure: 30.3"   Gusts: NA
Location:  38.7501°N, 87.6141°W
Report Text: KLWV 210253Z AUTO 00000KT 10SM CLR M06/M09 A3030 RMK AO2 SLP266 T10611094 53015
Loading
Personal Weather Stations






























Interactive Weather Map New forecast layout! Learn more

10-Day Weather Forecast

Advertisements
Track Severe Weather on mobile